sensor_id;sensor_type;location;lat;lon;timestamp;P1;durP1;ratioP1;P2;durP2;ratioP2
28822;SDS011;15961;54.678;9.110;2024-01-15T00:01:14;18.55;;;2.55;;
28822;SDS011;15961;54.678;9.110;2024-01-15T00:04:00;17.40;;;5.43;;
28822;SDS011;15961;54.678;9.110;2024-01-15T00:06:45;10.32;;;3.10;;
28822;SDS011;15961;54.678;9.110;2024-01-15T00:09:31;16.35;;;2.47;;
28822;SDS011;15961;54.678;9.110;2024-01-15T00:12:17;11.40;;;2.90;;
28822;SDS011;15961;54.678;9.110;2024-01-15T00:15:02;6.45;;;1.67;;
28822;SDS011;15961;54.678;9.110;2024-01-15T00:17:48;9.60;;;3.55;;
28822;SDS011;15961;54.678;9.110;2024-01-15T00:20:34;10.85;;;3.17;;
28822;SDS011;15961;54.678;9.110;2024-01-15T00:23:19;11.60;;;2.58;;
28822;SDS011;15961;54.678;9.110;2024-01-15T00:26:05;5.63;;;2.20;;
28822;SDS011;15961;54.678;9.110;2024-01-15T00:28:51;9.50;;;2.55;;
28822;SDS011;15961;54.678;9.110;2024-01-15T00:31:36;5.60;;;2.67;;
28822;SDS011;15961;54.678;9.110;2024-01-15T00:34:22;12.07;;;2.78;;
28822;SDS011;15961;54.678;9.110;2024-01-15T00:37:08;8.02;;;1.90;;
28822;SDS011;15961;54.678;9.110;2024-01-15T00:39:53;11.52;;;2.55;;
28822;SDS011;15961;54.678;9.110;2024-01-15T00:42:39;14.30;;;3.35;;
28822;SDS011;15961;54.678;9.110;2024-01-15T00:45:24;14.32;;;3.50;;
28822;SDS011;15961;54.678;9.110;2024-01-15T00:48:10;16.73;;;2.83;;
28822;SDS011;15961;54.678;9.110;2024-01-15T00:50:56;12.48;;;4.03;;
28822;SDS011;15961;54.678;9.110;2024-01-15T00:53:41;11.05;;;1.73;;
28822;SDS011;15961;54.678;9.110;2024-01-15T00:56:27;12.85;;;3.20;;
28822;SDS011;15961;54.678;9.110;2024-01-15T00:59:13;18.30;;;3.25;;
28822;SDS011;15961;54.678;9.110;2024-01-15T01:02:00;10.75;;;3.22;;
28822;SDS011;15961;54.678;9.110;2024-01-15T01:04:45;4.13;;;2.70;;
28822;SDS011;15961;54.678;9.110;2024-01-15T01:07:31;5.88;;;1.75;;
28822;SDS011;15961;54.678;9.110;2024-01-15T01:10:17;14.23;;;2.25;;
28822;SDS011;15961;54.678;9.110;2024-01-15T01:13:02;12.20;;;2.33;;
28822;SDS011;15961;54.678;9.110;2024-01-15T01:15:48;6.50;;;1.92;;
28822;SDS011;15961;54.678;9.110;2024-01-15T01:18:34;9.13;;;2.28;;
28822;SDS011;15961;54.678;9.110;2024-01-15T01:21:20;6.03;;;2.42;;
28822;SDS011;15961;54.678;9.110;2024-01-15T01:24:06;9.48;;;2.50;;
28822;SDS011;15961;54.678;9.110;2024-01-15T01:26:51;12.18;;;2.38;;
28822;SDS011;15961;54.678;9.110;2024-01-15T01:29:37;15.38;;;3.58;;
28822;SDS011;15961;54.678;9.110;2024-01-15T01:32:22;15.32;;;2.45;;
28822;SDS011;15961;54.678;9.110;2024-01-15T01:35:08;14.30;;;2.08;;
28822;SDS011;15961;54.678;9.110;2024-01-15T01:37:54;10.25;;;2.45;;
28822;SDS011;15961;54.678;9.110;2024-01-15T01:40:42;16.75;;;2.60;;
28822;SDS011;15961;54.678;9.110;2024-01-15T01:43:28;9.50;;;2.00;;
28822;SDS011;15961;54.678;9.110;2024-01-15T01:46:13;16.70;;;2.80;;
28822;SDS011;15961;54.678;9.110;2024-01-15T01:48:59;14.13;;;2.58;;
28822;SDS011;15961;54.678;9.110;2024-01-15T01:51:50;15.52;;;2.70;;
28822;SDS011;15961;54.678;9.110;2024-01-15T01:54:36;12.45;;;2.28;;
28822;SDS011;15961;54.678;9.110;2024-01-15T01:57:22;8.77;;;1.88;;
28822;SDS011;15961;54.678;9.110;2024-01-15T02:00:08;16.88;;;2.58;;
28822;SDS011;15961;54.678;9.110;2024-01-15T02:02:54;9.70;;;2.42;;
28822;SDS011;15961;54.678;9.110;2024-01-15T02:05:40;16.83;;;3.05;;
28822;SDS011;15961;54.678;9.110;2024-01-15T02:08:28;8.00;;;1.90;;
28822;SDS011;15961;54.678;9.110;2024-01-15T02:11:14;12.13;;;2.30;;
28822;SDS011;15961;54.678;9.110;2024-01-15T02:14:02;8.88;;;2.75;;
28822;SDS011;15961;54.678;9.110;2024-01-15T02:16:48;9.05;;;3.25;;
28822;SDS011;15961;54.678;9.110;2024-01-15T02:19:34;7.22;;;2.20;;
28822;SDS011;15961;54.678;9.110;2024-01-15T02:22:22;13.10;;;2.20;;
28822;SDS011;15961;54.678;9.110;2024-01-15T02:25:08;6.97;;;2.28;;
28822;SDS011;15961;54.678;9.110;2024-01-15T02:27:54;6.65;;;1.33;;
28822;SDS011;15961;54.678;9.110;2024-01-15T02:30:47;10.50;;;1.90;;
28822;SDS011;15961;54.678;9.110;2024-01-15T02:33:33;5.97;;;2.28;;
28822;SDS011;15961;54.678;9.110;2024-01-15T02:36:18;7.25;;;2.10;;
28822;SDS011;15961;54.678;9.110;2024-01-15T02:39:04;27.38;;;2.83;;
28822;SDS011;15961;54.678;9.110;2024-01-15T02:41:50;8.15;;;1.48;;
28822;SDS011;15961;54.678;9.110;2024-01-15T02:44:35;7.90;;;2.22;;
28822;SDS011;15961;54.678;9.110;2024-01-15T02:47:21;7.00;;;2.17;;
28822;SDS011;15961;54.678;9.110;2024-01-15T02:50:07;15.38;;;2.97;;
28822;SDS011;15961;54.678;9.110;2024-01-15T02:52:52;13.15;;;2.75;;
28822;SDS011;15961;54.678;9.110;2024-01-15T02:55:38;15.15;;;2.20;;
28822;SDS011;15961;54.678;9.110;2024-01-15T02:58:23;8.85;;;2.67;;
28822;SDS011;15961;54.678;9.110;2024-01-15T03:01:09;7.95;;;3.00;;
28822;SDS011;15961;54.678;9.110;2024-01-15T03:03:55;8.93;;;2.50;;
28822;SDS011;15961;54.678;9.110;2024-01-15T03:06:40;15.25;;;2.40;;
28822;SDS011;15961;54.678;9.110;2024-01-15T03:09:26;5.40;;;1.70;;
28822;SDS011;15961;54.678;9.110;2024-01-15T03:12:12;11.60;;;3.58;;
28822;SDS011;15961;54.678;9.110;2024-01-15T03:14:57;10.35;;;1.55;;
28822;SDS011;15961;54.678;9.110;2024-01-15T03:17:43;12.95;;;3.15;;
28822;SDS011;15961;54.678;9.110;2024-01-15T03:20:29;7.72;;;1.70;;
28822;SDS011;15961;54.678;9.110;2024-01-15T03:23:14;3.47;;;2.85;;
28822;SDS011;15961;54.678;9.110;2024-01-15T03:26:00;9.73;;;2.38;;
28822;SDS011;15961;54.678;9.110;2024-01-15T03:28:45;10.50;;;2.35;;
28822;SDS011;15961;54.678;9.110;2024-01-15T03:31:31;14.18;;;2.33;;
28822;SDS011;15961;54.678;9.110;2024-01-15T03:34:17;10.30;;;2.05;;
28822;SDS011;15961;54.678;9.110;2024-01-15T03:37:03;14.80;;;2.85;;
28822;SDS011;15961;54.678;9.110;2024-01-15T03:39:49;16.98;;;3.17;;
28822;SDS011;15961;54.678;9.110;2024-01-15T03:42:34;7.15;;;3.85;;
28822;SDS011;15961;54.678;9.110;2024-01-15T03:45:20;10.27;;;2.78;;
28822;SDS011;15961;54.678;9.110;2024-01-15T03:48:05;12.18;;;3.15;;
28822;SDS011;15961;54.678;9.110;2024-01-15T03:50:51;17.65;;;2.83;;
28822;SDS011;15961;54.678;9.110;2024-01-15T03:53:38;19.40;;;3.10;;
28822;SDS011;15961;54.678;9.110;2024-01-15T03:56:23;6.00;;;2.28;;
28822;SDS011;15961;54.678;9.110;2024-01-15T03:59:09;12.25;;;3.17;;
28822;SDS011;15961;54.678;9.110;2024-01-15T04:01:54;32.83;;;5.30;;
28822;SDS011;15961;54.678;9.110;2024-01-15T04:04:41;12.60;;;2.65;;
28822;SDS011;15961;54.678;9.110;2024-01-15T04:07:28;19.15;;;2.25;;
28822;SDS011;15961;54.678;9.110;2024-01-15T04:10:13;11.65;;;2.13;;
28822;SDS011;15961;54.678;9.110;2024-01-15T04:12:59;5.43;;;2.00;;
28822;SDS011;15961;54.678;9.110;2024-01-15T04:15:45;11.68;;;3.15;;
28822;SDS011;15961;54.678;9.110;2024-01-15T04:18:31;14.85;;;2.30;;
28822;SDS011;15961;54.678;9.110;2024-01-15T04:21:17;11.77;;;2.78;;
28822;SDS011;15961;54.678;9.110;2024-01-15T04:24:03;5.50;;;2.80;;
28822;SDS011;15961;54.678;9.110;2024-01-15T04:26:49;11.02;;;2.00;;
28822;SDS011;15961;54.678;9.110;2024-01-15T04:29:37;4.68;;;1.55;;
28822;SDS011;15961;54.678;9.110;2024-01-15T04:32:23;13.07;;;2.88;;
28822;SDS011;15961;54.678;9.110;2024-01-15T04:35:08;5.95;;;2.05;;
28822;SDS011;15961;54.678;9.110;2024-01-15T04:37:54;2.78;;;2.15;;
28822;SDS011;15961;54.678;9.110;2024-01-15T04:40:40;10.05;;;2.55;;
28822;SDS011;15961;54.678;9.110;2024-01-15T04:43:26;10.15;;;2.72;;
28822;SDS011;15961;54.678;9.110;2024-01-15T04:46:11;15.40;;;3.05;;
28822;SDS011;15961;54.678;9.110;2024-01-15T04:48:57;6.00;;;2.33;;
28822;SDS011;15961;54.678;9.110;2024-01-15T04:51:43;16.50;;;2.72;;
28822;SDS011;15961;54.678;9.110;2024-01-15T04:54:28;9.07;;;1.90;;
28822;SDS011;15961;54.678;9.110;2024-01-15T04:57:14;5.10;;;1.75;;
28822;SDS011;15961;54.678;9.110;2024-01-15T05:00:00;7.65;;;2.00;;
28822;SDS011;15961;54.678;9.110;2024-01-15T05:02:46;9.57;;;1.75;;
28822;SDS011;15961;54.678;9.110;2024-01-15T05:05:31;6.30;;;1.85;;
28822;SDS011;15961;54.678;9.110;2024-01-15T05:08:17;6.57;;;1.90;;
28822;SDS011;15961;54.678;9.110;2024-01-15T05:11:02;9.30;;;2.65;;
28822;SDS011;15961;54.678;9.110;2024-01-15T05:13:48;11.70;;;2.25;;
28822;SDS011;15961;54.678;9.110;2024-01-15T05:16:34;14.63;;;2.88;;
28822;SDS011;15961;54.678;9.110;2024-01-15T05:19:20;13.48;;;2.13;;
28822;SDS011;15961;54.678;9.110;2024-01-15T05:22:05;10.40;;;2.67;;
28822;SDS011;15961;54.678;9.110;2024-01-15T05:24:51;12.30;;;2.33;;
28822;SDS011;15961;54.678;9.110;2024-01-15T05:27:36;8.75;;;2.55;;
28822;SDS011;15961;54.678;9.110;2024-01-15T05:30:22;10.73;;;1.88;;
28822;SDS011;15961;54.678;9.110;2024-01-15T05:33:08;9.00;;;2.40;;
28822;SDS011;15961;54.678;9.110;2024-01-15T05:35:53;10.82;;;3.58;;
28822;SDS011;15961;54.678;9.110;2024-01-15T05:38:39;7.55;;;2.80;;
28822;SDS011;15961;54.678;9.110;2024-01-15T05:41:25;8.60;;;2.53;;
28822;SDS011;15961;54.678;9.110;2024-01-15T05:44:10;10.32;;;2.03;;
28822;SDS011;15961;54.678;9.110;2024-01-15T05:46:56;13.38;;;2.95;;
28822;SDS011;15961;54.678;9.110;2024-01-15T05:49:42;9.75;;;3.03;;
28822;SDS011;15961;54.678;9.110;2024-01-15T05:52:27;4.78;;;2.00;;
28822;SDS011;15961;54.678;9.110;2024-01-15T05:55:13;10.48;;;2.10;;
28822;SDS011;15961;54.678;9.110;2024-01-15T05:57:59;14.30;;;2.72;;
28822;SDS011;15961;54.678;9.110;2024-01-15T06:00:44;6.60;;;1.75;;
28822;SDS011;15961;54.678;9.110;2024-01-15T06:03:31;7.45;;;2.33;;
28822;SDS011;15961;54.678;9.110;2024-01-15T06:06:17;6.03;;;2.00;;
28822;SDS011;15961;54.678;9.110;2024-01-15T06:09:02;8.35;;;2.40;;
28822;SDS011;15961;54.678;9.110;2024-01-15T06:11:50;13.93;;;3.20;;
28822;SDS011;15961;54.678;9.110;2024-01-15T06:14:36;5.43;;;1.88;;
28822;SDS011;15961;54.678;9.110;2024-01-15T06:17:22;8.98;;;2.53;;
28822;SDS011;15961;54.678;9.110;2024-01-15T06:20:07;10.43;;;3.65;;
28822;SDS011;15961;54.678;9.110;2024-01-15T06:22:54;4.97;;;2.25;;
28822;SDS011;15961;54.678;9.110;2024-01-15T06:25:40;11.52;;;2.80;;
28822;SDS011;15961;54.678;9.110;2024-01-15T06:28:25;7.80;;;2.47;;
28822;SDS011;15961;54.678;9.110;2024-01-15T06:31:11;5.22;;;2.60;;
28822;SDS011;15961;54.678;9.110;2024-01-15T06:33:57;15.77;;;3.70;;
28822;SDS011;15961;54.678;9.110;2024-01-15T06:36:43;6.47;;;2.10;;
28822;SDS011;15961;54.678;9.110;2024-01-15T06:39:29;5.38;;;2.55;;
28822;SDS011;15961;54.678;9.110;2024-01-15T06:42:14;11.15;;;2.45;;
28822;SDS011;15961;54.678;9.110;2024-01-15T06:45:00;10.23;;;1.98;;
28822;SDS011;15961;54.678;9.110;2024-01-15T06:47:46;7.28;;;2.35;;
28822;SDS011;15961;54.678;9.110;2024-01-15T06:50:31;5.38;;;1.85;;
28822;SDS011;15961;54.678;9.110;2024-01-15T06:53:17;14.20;;;2.55;;
28822;SDS011;15961;54.678;9.110;2024-01-15T06:56:02;4.45;;;1.75;;
28822;SDS011;15961;54.678;9.110;2024-01-15T06:58:48;6.53;;;1.63;;
28822;SDS011;15961;54.678;9.110;2024-01-15T07:01:34;7.03;;;2.08;;
28822;SDS011;15961;54.678;9.110;2024-01-15T07:04:22;6.70;;;2.90;;
28822;SDS011;15961;54.678;9.110;2024-01-15T07:07:07;12.45;;;2.20;;
28822;SDS011;15961;54.678;9.110;2024-01-15T07:09:53;8.98;;;1.88;;
28822;SDS011;15961;54.678;9.110;2024-01-15T07:12:38;7.03;;;2.42;;
28822;SDS011;15961;54.678;9.110;2024-01-15T07:15:24;10.15;;;3.08;;
28822;SDS011;15961;54.678;9.110;2024-01-15T07:18:10;14.10;;;1.90;;
28822;SDS011;15961;54.678;9.110;2024-01-15T07:20:56;5.90;;;1.70;;
28822;SDS011;15961;54.678;9.110;2024-01-15T07:23:41;5.28;;;1.38;;
28822;SDS011;15961;54.678;9.110;2024-01-15T07:26:29;11.57;;;2.50;;
28822;SDS011;15961;54.678;9.110;2024-01-15T07:29:15;10.02;;;1.92;;
28822;SDS011;15961;54.678;9.110;2024-01-15T07:32:01;5.93;;;2.20;;
28822;SDS011;15961;54.678;9.110;2024-01-15T07:34:46;10.63;;;1.52;;
28822;SDS011;15961;54.678;9.110;2024-01-15T07:37:32;13.02;;;1.85;;
28822;SDS011;15961;54.678;9.110;2024-01-15T07:40:18;7.32;;;1.88;;
28822;SDS011;15961;54.678;9.110;2024-01-15T07:43:04;11.48;;;1.85;;
28822;SDS011;15961;54.678;9.110;2024-01-15T07:45:49;5.72;;;2.00;;
28822;SDS011;15961;54.678;9.110;2024-01-15T07:48:35;9.50;;;2.80;;
28822;SDS011;15961;54.678;9.110;2024-01-15T07:51:21;6.13;;;1.80;;
28822;SDS011;15961;54.678;9.110;2024-01-15T07:54:07;3.40;;;1.58;;
28822;SDS011;15961;54.678;9.110;2024-01-15T07:56:56;4.78;;;1.45;;
28822;SDS011;15961;54.678;9.110;2024-01-15T07:59:43;4.70;;;1.75;;
28822;SDS011;15961;54.678;9.110;2024-01-15T08:02:28;6.18;;;1.73;;
28822;SDS011;15961;54.678;9.110;2024-01-15T08:05:14;5.20;;;1.40;;
28822;SDS011;15961;54.678;9.110;2024-01-15T08:08:00;12.00;;;2.10;;
28822;SDS011;15961;54.678;9.110;2024-01-15T08:10:45;4.65;;;1.88;;
28822;SDS011;15961;54.678;9.110;2024-01-15T08:13:31;5.05;;;1.63;;
28822;SDS011;15961;54.678;9.110;2024-01-15T08:16:17;3.85;;;1.85;;
28822;SDS011;15961;54.678;9.110;2024-01-15T08:19:02;4.20;;;1.40;;
28822;SDS011;15961;54.678;9.110;2024-01-15T08:21:48;1.42;;;1.33;;
28822;SDS011;15961;54.678;9.110;2024-01-15T08:24:34;3.53;;;1.58;;
28822;SDS011;15961;54.678;9.110;2024-01-15T08:27:19;4.10;;;1.35;;
28822;SDS011;15961;54.678;9.110;2024-01-15T08:30:05;3.03;;;1.40;;
28822;SDS011;15961;54.678;9.110;2024-01-15T08:32:51;1.25;;;1.02;;
28822;SDS011;15961;54.678;9.110;2024-01-15T08:35:37;3.28;;;1.67;;
28822;SDS011;15961;54.678;9.110;2024-01-15T08:38:23;3.00;;;1.50;;
28822;SDS011;15961;54.678;9.110;2024-01-15T08:41:08;2.72;;;1.25;;
28822;SDS011;15961;54.678;9.110;2024-01-15T08:43:54;2.80;;;1.35;;
28822;SDS011;15961;54.678;9.110;2024-01-15T08:46:40;1.80;;;1.25;;
28822;SDS011;15961;54.678;9.110;2024-01-15T08:49:25;6.18;;;1.55;;
28822;SDS011;15961;54.678;9.110;2024-01-15T08:52:11;3.53;;;1.17;;
28822;SDS011;15961;54.678;9.110;2024-01-15T08:54:57;5.57;;;1.25;;
28822;SDS011;15961;54.678;9.110;2024-01-15T08:57:42;5.90;;;1.27;;
28822;SDS011;15961;54.678;9.110;2024-01-15T09:00:28;4.90;;;1.50;;
28822;SDS011;15961;54.678;9.110;2024-01-15T09:03:14;2.55;;;1.42;;
28822;SDS011;15961;54.678;9.110;2024-01-15T09:05:59;1.63;;;1.35;;
28822;SDS011;15961;54.678;9.110;2024-01-15T09:08:45;1.70;;;1.30;;
28822;SDS011;15961;54.678;9.110;2024-01-15T09:11:31;1.60;;;1.13;;
28822;SDS011;15961;54.678;9.110;2024-01-15T09:14:17;6.35;;;1.75;;
28822;SDS011;15961;54.678;9.110;2024-01-15T09:17:04;2.65;;;1.52;;
28822;SDS011;15961;54.678;9.110;2024-01-15T09:19:50;1.70;;;1.48;;
28822;SDS011;15961;54.678;9.110;2024-01-15T09:22:37;8.55;;;1.65;;
28822;SDS011;15961;54.678;9.110;2024-01-15T09:25:25;3.72;;;1.55;;
28822;SDS011;15961;54.678;9.110;2024-01-15T09:28:11;1.60;;;1.13;;
28822;SDS011;15961;54.678;9.110;2024-01-15T09:30:57;2.42;;;1.30;;
28822;SDS011;15961;54.678;9.110;2024-01-15T09:33:42;3.95;;;1.30;;
28822;SDS011;15961;54.678;9.110;2024-01-15T09:36:28;6.68;;;1.95;;
28822;SDS011;15961;54.678;9.110;2024-01-15T09:39:14;1.45;;;1.10;;
28822;SDS011;15961;54.678;9.110;2024-01-15T09:42:00;3.53;;;1.63;;
28822;SDS011;15961;54.678;9.110;2024-01-15T09:44:47;2.13;;;1.20;;
28822;SDS011;15961;54.678;9.110;2024-01-15T09:47:33;2.33;;;1.60;;
28822;SDS011;15961;54.678;9.110;2024-01-15T09:50:19;3.50;;;1.15;;
28822;SDS011;15961;54.678;9.110;2024-01-15T09:53:05;2.60;;;1.60;;
28822;SDS011;15961;54.678;9.110;2024-01-15T09:55:51;6.85;;;1.50;;
28822;SDS011;15961;54.678;9.110;2024-01-15T09:58:38;2.80;;;1.55;;
28822;SDS011;15961;54.678;9.110;2024-01-15T10:01:24;4.40;;;1.77;;
28822;SDS011;15961;54.678;9.110;2024-01-15T10:04:11;5.10;;;1.30;;
28822;SDS011;15961;54.678;9.110;2024-01-15T10:06:57;2.08;;;1.05;;
28822;SDS011;15961;54.678;9.110;2024-01-15T10:09:46;4.25;;;1.30;;
28822;SDS011;15961;54.678;9.110;2024-01-15T10:12:31;5.90;;;1.60;;
28822;SDS011;15961;54.678;9.110;2024-01-15T10:15:17;4.15;;;1.60;;
28822;SDS011;15961;54.678;9.110;2024-01-15T10:18:03;3.63;;;1.67;;
28822;SDS011;15961;54.678;9.110;2024-01-15T10:20:49;3.42;;;1.27;;
28822;SDS011;15961;54.678;9.110;2024-01-15T10:23:35;4.90;;;2.03;;
28822;SDS011;15961;54.678;9.110;2024-01-15T10:26:24;6.22;;;1.45;;
28822;SDS011;15961;54.678;9.110;2024-01-15T10:29:10;2.67;;;1.30;;
28822;SDS011;15961;54.678;9.110;2024-01-15T10:31:56;3.28;;;2.05;;
28822;SDS011;15961;54.678;9.110;2024-01-15T10:34:42;10.63;;;1.67;;
28822;SDS011;15961;54.678;9.110;2024-01-15T10:37:33;1.95;;;1.13;;
28822;SDS011;15961;54.678;9.110;2024-01-15T10:40:19;4.35;;;1.33;;
28822;SDS011;15961;54.678;9.110;2024-01-15T10:43:05;3.97;;;1.42;;
28822;SDS011;15961;54.678;9.110;2024-01-15T10:45:51;1.40;;;1.30;;
28822;SDS011;15961;54.678;9.110;2024-01-15T10:48:36;1.27;;;1.13;;
28822;SDS011;15961;54.678;9.110;2024-01-15T10:51:22;3.90;;;1.88;;
28822;SDS011;15961;54.678;9.110;2024-01-15T10:54:09;2.40;;;2.20;;
28822;SDS011;15961;54.678;9.110;2024-01-15T10:56:56;7.40;;;1.92;;
28822;SDS011;15961;54.678;9.110;2024-01-15T10:59:42;1.85;;;1.27;;
28822;SDS011;15961;54.678;9.110;2024-01-15T11:02:28;11.35;;;1.88;;
28822;SDS011;15961;54.678;9.110;2024-01-15T11:05:14;3.78;;;1.55;;
28822;SDS011;15961;54.678;9.110;2024-01-15T11:07:59;3.40;;;1.77;;
28822;SDS011;15961;54.678;9.110;2024-01-15T11:10:47;4.03;;;1.42;;
28822;SDS011;15961;54.678;9.110;2024-01-15T11:16:23;7.85;;;1.75;;
28822;SDS011;15961;54.678;9.110;2024-01-15T11:19:08;6.47;;;1.25;;
28822;SDS011;15961;54.678;9.110;2024-01-15T11:21:58;1.63;;;1.35;;
28822;SDS011;15961;54.678;9.110;2024-01-15T11:24:43;7.53;;;1.77;;
28822;SDS011;15961;54.678;9.110;2024-01-15T11:27:45;1.70;;;1.52;;
28822;SDS011;15961;54.678;9.110;2024-01-15T11:30:37;4.18;;;1.35;;
28822;SDS011;15961;54.678;9.110;2024-01-15T11:33:32;5.55;;;1.35;;
28822;SDS011;15961;54.678;9.110;2024-01-15T11:36:18;2.45;;;1.35;;
28822;SDS011;15961;54.678;9.110;2024-01-15T11:39:39;3.70;;;1.50;;
28822;SDS011;15961;54.678;9.110;2024-01-15T11:42:15;5.93;;;1.50;;
28822;SDS011;15961;54.678;9.110;2024-01-15T11:45:01;2.80;;;1.33;;
28822;SDS011;15961;54.678;9.110;2024-01-15T11:50:53;2.33;;;1.60;;
28822;SDS011;15961;54.678;9.110;2024-01-15T11:53:44;4.28;;;1.30;;
28822;SDS011;15961;54.678;9.110;2024-01-15T11:56:32;2.90;;;1.52;;
28822;SDS011;15961;54.678;9.110;2024-01-15T11:59:18;1.92;;;1.25;;
28822;SDS011;15961;54.678;9.110;2024-01-15T12:02:03;4.20;;;2.15;;
28822;SDS011;15961;54.678;9.110;2024-01-15T12:04:49;3.33;;;2.03;;
28822;SDS011;15961;54.678;9.110;2024-01-15T12:07:35;4.38;;;1.98;;
28822;SDS011;15961;54.678;9.110;2024-01-15T12:10:21;4.07;;;1.73;;
28822;SDS011;15961;54.678;9.110;2024-01-15T12:13:13;2.45;;;1.45;;
28822;SDS011;15961;54.678;9.110;2024-01-15T12:16:01;2.67;;;1.75;;
28822;SDS011;15961;54.678;9.110;2024-01-15T12:18:47;2.28;;;1.73;;
28822;SDS011;15961;54.678;9.110;2024-01-15T12:21:33;3.00;;;1.40;;
28822;SDS011;15961;54.678;9.110;2024-01-15T12:24:18;5.93;;;1.70;;
28822;SDS011;15961;54.678;9.110;2024-01-15T12:27:04;9.93;;;1.40;;
28822;SDS011;15961;54.678;9.110;2024-01-15T12:29:53;13.23;;;2.78;;
28822;SDS011;15961;54.678;9.110;2024-01-15T12:32:42;8.70;;;2.15;;
28822;SDS011;15961;54.678;9.110;2024-01-15T12:35:28;3.72;;;2.08;;
28822;SDS011;15961;54.678;9.110;2024-01-15T12:39:16;4.78;;;1.75;;
28822;SDS011;15961;54.678;9.110;2024-01-15T12:42:02;5.63;;;1.30;;
28822;SDS011;15961;54.678;9.110;2024-01-15T12:44:48;2.40;;;2.20;;
28822;SDS011;15961;54.678;9.110;2024-01-15T12:47:37;3.10;;;1.45;;
28822;SDS011;15961;54.678;9.110;2024-01-15T12:50:24;2.75;;;2.03;;
28822;SDS011;15961;54.678;9.110;2024-01-15T12:53:11;6.85;;;1.35;;
28822;SDS011;15961;54.678;9.110;2024-01-15T12:55:56;3.20;;;1.20;;
28822;SDS011;15961;54.678;9.110;2024-01-15T12:58:42;3.95;;;1.52;;
28822;SDS011;15961;54.678;9.110;2024-01-15T13:01:27;3.22;;;1.38;;
28822;SDS011;15961;54.678;9.110;2024-01-15T13:04:22;10.38;;;2.50;;
28822;SDS011;15961;54.678;9.110;2024-01-15T13:07:08;1.38;;;0.95;;
28822;SDS011;15961;54.678;9.110;2024-01-15T13:09:54;6.18;;;1.55;;
28822;SDS011;15961;54.678;9.110;2024-01-15T13:12:40;2.58;;;1.33;;
28822;SDS011;15961;54.678;9.110;2024-01-15T13:15:26;2.70;;;1.67;;
28822;SDS011;15961;54.678;9.110;2024-01-15T13:18:12;5.78;;;2.00;;
28822;SDS011;15961;54.678;9.110;2024-01-15T13:20:57;3.33;;;1.23;;
28822;SDS011;15961;54.678;9.110;2024-01-15T13:23:43;3.17;;;1.63;;
28822;SDS011;15961;54.678;9.110;2024-01-15T13:26:29;6.63;;;2.25;;
28822;SDS011;15961;54.678;9.110;2024-01-15T13:29:14;4.15;;;2.05;;
28822;SDS011;15961;54.678;9.110;2024-01-15T13:32:00;2.53;;;1.75;;
28822;SDS011;15961;54.678;9.110;2024-01-15T13:34:48;2.25;;;1.65;;
28822;SDS011;15961;54.678;9.110;2024-01-15T13:37:34;4.22;;;1.45;;
28822;SDS011;15961;54.678;9.110;2024-01-15T13:40:19;1.60;;;1.38;;
28822;SDS011;15961;54.678;9.110;2024-01-15T13:43:05;2.58;;;1.88;;
28822;SDS011;15961;54.678;9.110;2024-01-15T13:45:53;2.90;;;1.27;;
28822;SDS011;15961;54.678;9.110;2024-01-15T13:48:39;2.25;;;2.15;;
28822;SDS011;15961;54.678;9.110;2024-01-15T13:51:25;2.28;;;1.48;;
28822;SDS011;15961;54.678;9.110;2024-01-15T13:54:11;2.35;;;1.48;;
28822;SDS011;15961;54.678;9.110;2024-01-15T13:56:57;2.78;;;1.45;;
28822;SDS011;15961;54.678;9.110;2024-01-15T13:59:44;3.72;;;1.48;;
28822;SDS011;15961;54.678;9.110;2024-01-15T14:02:29;2.83;;;1.48;;
28822;SDS011;15961;54.678;9.110;2024-01-15T14:05:15;3.60;;;1.40;;
28822;SDS011;15961;54.678;9.110;2024-01-15T14:08:01;5.38;;;1.30;;
28822;SDS011;15961;54.678;9.110;2024-01-15T14:10:48;8.55;;;1.83;;
28822;SDS011;15961;54.678;9.110;2024-01-15T14:13:34;16.60;;;6.70;;
28822;SDS011;15961;54.678;9.110;2024-01-15T14:16:20;11.30;;;6.30;;
28822;SDS011;15961;54.678;9.110;2024-01-15T14:19:05;9.23;;;4.35;;
28822;SDS011;15961;54.678;9.110;2024-01-15T14:21:54;12.10;;;3.38;;
28822;SDS011;15961;54.678;9.110;2024-01-15T14:24:40;13.50;;;3.83;;
28822;SDS011;15961;54.678;9.110;2024-01-15T14:27:26;10.48;;;3.05;;
28822;SDS011;15961;54.678;9.110;2024-01-15T14:30:12;7.22;;;3.00;;
28822;SDS011;15961;54.678;9.110;2024-01-15T14:32:58;4.28;;;2.40;;
28822;SDS011;15961;54.678;9.110;2024-01-15T14:35:46;4.15;;;2.15;;
28822;SDS011;15961;54.678;9.110;2024-01-15T14:38:32;6.35;;;2.38;;
28822;SDS011;15961;54.678;9.110;2024-01-15T14:41:17;3.67;;;2.08;;
28822;SDS011;15961;54.678;9.110;2024-01-15T14:44:03;6.85;;;2.65;;
28822;SDS011;15961;54.678;9.110;2024-01-15T14:46:49;5.88;;;2.30;;
28822;SDS011;15961;54.678;9.110;2024-01-15T14:49:35;6.68;;;2.85;;
28822;SDS011;15961;54.678;9.110;2024-01-15T14:52:21;8.00;;;2.92;;
28822;SDS011;15961;54.678;9.110;2024-01-15T14:55:07;7.97;;;2.17;;
28822;SDS011;15961;54.678;9.110;2024-01-15T14:57:54;2.67;;;1.92;;
28822;SDS011;15961;54.678;9.110;2024-01-15T15:00:40;4.15;;;1.95;;
28822;SDS011;15961;54.678;9.110;2024-01-15T15:03:28;11.15;;;1.52;;
28822;SDS011;15961;54.678;9.110;2024-01-15T15:06:14;2.75;;;1.33;;
28822;SDS011;15961;54.678;9.110;2024-01-15T15:09:00;1.60;;;1.38;;
28822;SDS011;15961;54.678;9.110;2024-01-15T15:11:46;6.05;;;1.88;;
28822;SDS011;15961;54.678;9.110;2024-01-15T15:14:34;3.15;;;1.52;;
28822;SDS011;15961;54.678;9.110;2024-01-15T15:17:22;4.28;;;2.03;;
28822;SDS011;15961;54.678;9.110;2024-01-15T15:20:08;1.95;;;1.77;;
28822;SDS011;15961;54.678;9.110;2024-01-15T15:22:54;2.13;;;1.55;;
28822;SDS011;15961;54.678;9.110;2024-01-15T15:25:41;3.10;;;1.38;;
28822;SDS011;15961;54.678;9.110;2024-01-15T15:28:29;5.20;;;2.80;;
28822;SDS011;15961;54.678;9.110;2024-01-15T15:31:15;11.02;;;3.90;;
28822;SDS011;15961;54.678;9.110;2024-01-15T15:34:00;5.22;;;2.33;;
28822;SDS011;15961;54.678;9.110;2024-01-15T15:36:46;125.78;;;21.30;;
28822;SDS011;15961;54.678;9.110;2024-01-15T15:39:32;87.47;;;18.73;;
28822;SDS011;15961;54.678;9.110;2024-01-15T15:42:17;23.20;;;7.22;;
28822;SDS011;15961;54.678;9.110;2024-01-15T15:45:04;31.38;;;7.50;;
28822;SDS011;15961;54.678;9.110;2024-01-15T15:47:50;20.50;;;6.40;;
28822;SDS011;15961;54.678;9.110;2024-01-15T15:50:36;6.28;;;3.88;;
28822;SDS011;15961;54.678;9.110;2024-01-15T15:53:21;24.92;;;4.93;;
28822;SDS011;15961;54.678;9.110;2024-01-15T15:56:07;6.35;;;2.50;;
28822;SDS011;15961;54.678;9.110;2024-01-15T15:58:53;9.93;;;2.75;;
28822;SDS011;15961;54.678;9.110;2024-01-15T16:01:38;11.50;;;3.42;;
28822;SDS011;15961;54.678;9.110;2024-01-15T16:04:24;3.33;;;1.38;;
28822;SDS011;15961;54.678;9.110;2024-01-15T16:07:09;12.13;;;4.00;;
28822;SDS011;15961;54.678;9.110;2024-01-15T16:09:56;11.32;;;3.33;;
28822;SDS011;15961;54.678;9.110;2024-01-15T16:12:42;4.93;;;1.83;;
28822;SDS011;15961;54.678;9.110;2024-01-15T16:15:28;5.93;;;2.15;;
28822;SDS011;15961;54.678;9.110;2024-01-15T16:18:13;6.20;;;1.58;;
28822;SDS011;15961;54.678;9.110;2024-01-15T16:20:59;5.15;;;3.03;;
28822;SDS011;15961;54.678;9.110;2024-01-15T16:23:44;5.35;;;2.70;;
28822;SDS011;15961;54.678;9.110;2024-01-15T16:26:30;4.43;;;2.10;;
28822;SDS011;15961;54.678;9.110;2024-01-15T16:29:16;10.38;;;2.67;;
28822;SDS011;15961;54.678;9.110;2024-01-15T16:32:01;3.55;;;1.52;;
28822;SDS011;15961;54.678;9.110;2024-01-15T16:34:49;3.00;;;1.67;;
28822;SDS011;15961;54.678;9.110;2024-01-15T16:37:34;12.95;;;2.90;;
28822;SDS011;15961;54.678;9.110;2024-01-15T16:40:21;3.58;;;2.17;;
28822;SDS011;15961;54.678;9.110;2024-01-15T16:43:06;6.75;;;2.15;;